createdAt,value
2022-12-01T00:00:58.385Z,15.10
2022-12-01T00:03:34.803Z,11.73
2022-12-01T00:06:06.499Z,15.60
2022-12-01T00:08:37.427Z,13.00
2022-12-01T00:11:06.155Z,15.63
2022-12-01T00:13:37.629Z,15.87
2022-12-01T00:16:14.120Z,15.07
2022-12-01T00:18:47.824Z,13.60
2022-12-01T00:21:18.173Z,15.50
2022-12-01T00:23:49.243Z,12.07
2022-12-01T00:26:20.169Z,12.73
2022-12-01T00:28:52.650Z,11.90
2022-12-01T00:31:23.154Z,12.90
2022-12-01T00:33:57.103Z,12.83
2022-12-01T00:36:27.237Z,13.40
2022-12-01T00:38:58.861Z,11.70
2022-12-01T00:41:29.307Z,12.10
2022-12-01T00:43:59.621Z,12.70
2022-12-01T00:46:29.626Z,14.73
2022-12-01T00:49:02.428Z,13.83
2022-12-01T00:51:32.513Z,13.70
2022-12-01T00:54:02.759Z,15.60
2022-12-01T00:56:32.729Z,16.03
2022-12-01T00:59:03.133Z,15.17
2022-12-01T01:01:34.400Z,16.37
2022-12-01T01:04:07.449Z,15.87
2022-12-01T01:06:37.453Z,15.13
2022-12-01T01:09:07.918Z,14.20
2022-12-01T01:11:37.946Z,17.77
2022-12-01T01:14:09.939Z,18.43
2022-12-01T01:16:40.449Z,17.10
2022-12-01T01:19:13.589Z,17.20
2022-12-01T01:21:43.518Z,18.00
2022-12-01T01:24:14.041Z,16.17
2022-12-01T01:26:43.974Z,17.90
2022-12-01T01:29:14.220Z,19.73
2022-12-01T01:31:44.223Z,18.23
2022-12-01T01:34:17.142Z,17.73
2022-12-01T01:36:48.001Z,19.43
2022-12-01T01:39:18.099Z,18.20
2022-12-01T01:41:48.158Z,19.07
2022-12-01T01:44:50.500Z,17.27
2022-12-01T01:47:25.710Z,16.20
2022-12-01T01:50:00.776Z,14.40
2022-12-01T01:52:32.050Z,17.07
2022-12-01T01:55:02.388Z,18.27
2022-12-01T01:57:35.115Z,18.70
2022-12-01T02:00:09.200Z,18.97
2022-12-01T02:02:46.312Z,17.87
2022-12-01T02:05:23.188Z,17.90
2022-12-01T02:07:54.774Z,16.33
2022-12-01T02:10:30.112Z,17.43
2022-12-01T02:13:11.705Z,16.53
2022-12-01T02:15:52.891Z,18.00
2022-12-01T02:18:28.958Z,18.20
2022-12-01T02:21:19.648Z,22.10
2022-12-01T02:24:19.753Z,20.27
2022-12-01T02:26:55.809Z,21.40
2022-12-01T02:29:46.312Z,23.03
2022-12-01T02:32:24.851Z,20.27
2022-12-01T02:34:59.314Z,21.20
2022-12-01T02:37:37.017Z,20.77
2022-12-01T02:40:15.873Z,24.80
2022-12-01T02:42:54.962Z,22.30
2022-12-01T02:45:36.105Z,23.50
2022-12-01T02:48:14.959Z,26.23
2022-12-01T02:50:48.257Z,24.33
2022-12-01T02:53:22.422Z,23.83
2022-12-01T02:55:54.969Z,24.03
2022-12-01T02:58:25.942Z,23.20
2022-12-01T03:01:18.869Z,22.73
2022-12-01T03:04:03.929Z,21.50
2022-12-01T03:06:44.635Z,18.33
2022-12-01T03:09:23.413Z,17.17
2022-12-01T03:12:02.251Z,22.23
2022-12-01T03:14:41.054Z,19.43
2022-12-01T03:17:15.533Z,18.90
2022-12-01T03:19:51.572Z,18.70
2022-12-01T03:22:27.159Z,17.50
2022-12-01T03:25:00.459Z,17.87
2022-12-01T03:27:34.468Z,19.70
2022-12-01T03:30:10.784Z,16.20
2022-12-01T03:32:47.740Z,16.03
2022-12-01T03:35:27.138Z,16.27
2022-12-01T03:38:02.169Z,13.90
2022-12-01T03:40:36.768Z,14.10
2022-12-01T03:43:10.218Z,15.37
2022-12-01T03:45:48.972Z,15.00
2022-12-01T03:48:19.704Z,15.20
2022-12-01T03:50:59.399Z,16.77
2022-12-01T03:53:35.674Z,13.70
2022-12-01T03:56:09.079Z,16.50
2022-12-01T03:58:44.186Z,15.10
2022-12-01T04:01:15.314Z,18.73
2022-12-01T04:03:48.832Z,17.47
2022-12-01T04:06:21.370Z,16.53
2022-12-01T04:08:51.867Z,13.63
2022-12-01T04:11:34.209Z,15.23
2022-12-01T04:14:05.003Z,15.20
2022-12-01T04:16:34.977Z,16.10
2022-12-01T04:19:05.471Z,17.07
2022-12-01T04:21:38.046Z,15.83
2022-12-01T04:24:09.325Z,14.70
2022-12-01T04:26:42.045Z,14.10
2022-12-01T04:29:14.438Z,14.47
2022-12-01T04:31:44.813Z,13.63
2022-12-01T04:34:15.029Z,15.47
2022-12-01T04:36:47.837Z,16.03
2022-12-01T04:39:18.104Z,15.00
2022-12-01T04:41:48.018Z,13.90
2022-12-01T04:44:18.591Z,12.63
2022-12-01T04:46:48.531Z,14.30
2022-12-01T04:49:19.180Z,14.93
2022-12-01T04:51:52.612Z,14.13
2022-12-01T04:54:22.675Z,12.40
2022-12-01T04:56:52.810Z,14.63
2022-12-01T04:59:23.422Z,12.73
2022-12-01T05:01:53.447Z,16.33
2022-12-01T05:04:23.751Z,11.40
2022-12-01T05:06:57.668Z,11.13
2022-12-01T05:09:28.045Z,11.80
2022-12-01T05:11:57.913Z,11.00
2022-12-01T05:14:28.585Z,14.00
2022-12-01T05:16:59.936Z,11.60
2022-12-01T05:19:43.323Z,12.20
2022-12-01T05:22:15.832Z,10.90
2022-12-01T05:24:46.462Z,11.30
2022-12-01T05:27:16.417Z,10.97
2022-12-01T05:29:46.733Z,10.53
2022-12-01T05:32:16.771Z,11.80
2022-12-01T05:34:47.404Z,13.20
2022-12-01T05:37:19.920Z,11.50
2022-12-01T05:39:50.698Z,14.03
2022-12-01T05:42:20.766Z,14.57
2022-12-01T05:44:51.249Z,15.83
2022-12-01T05:47:21.235Z,16.17
2022-12-01T05:49:51.333Z,13.40
2022-12-01T05:52:24.069Z,14.17
2022-12-01T05:54:54.355Z,13.23
2022-12-01T05:57:24.330Z,13.47
2022-12-01T05:59:55.022Z,12.97
2022-12-01T06:02:26.844Z,14.30
2022-12-01T06:04:57.264Z,13.90
2022-12-01T06:07:29.849Z,13.37
2022-12-01T06:10:00.433Z,12.80
2022-12-01T06:12:30.473Z,14.07
2022-12-01T06:15:00.799Z,14.30
2022-12-01T06:17:34.568Z,13.50
2022-12-01T06:20:08.218Z,14.83
2022-12-01T06:22:40.864Z,14.07
2022-12-01T06:25:12.533Z,15.80
2022-12-01T06:27:42.461Z,17.20
2022-12-01T06:30:13.313Z,15.40
2022-12-01T06:32:43.204Z,15.83
2022-12-01T06:35:13.419Z,14.47
2022-12-01T06:37:46.186Z,16.57
2022-12-01T06:40:16.889Z,16.20
2022-12-01T06:42:46.764Z,10.77
2022-12-01T06:45:17.344Z,13.63
2022-12-01T06:47:48.458Z,17.33
2022-12-01T06:50:18.913Z,15.30
2022-12-01T06:52:52.814Z,14.83
2022-12-01T06:55:23.599Z,15.50
2022-12-01T06:57:53.788Z,15.40
2022-12-01T07:00:25.479Z,13.80
2022-12-01T07:02:55.521Z,14.30
2022-12-01T07:05:25.988Z,14.10
2022-12-01T07:07:59.855Z,11.73
2022-12-01T07:10:30.599Z,15.33
2022-12-01T07:13:00.533Z,9.73
2022-12-01T07:15:30.899Z,11.17
2022-12-01T07:18:00.845Z,13.10
2022-12-01T07:20:30.789Z,13.00
2022-12-01T07:23:03.272Z,9.60
2022-12-01T07:25:33.602Z,8.70
2022-12-01T07:28:03.521Z,10.30
2022-12-01T07:30:33.526Z,8.70
2022-12-01T07:33:03.672Z,9.23
2022-12-01T07:35:34.379Z,9.23
2022-12-01T07:38:06.924Z,10.77
2022-12-01T07:40:37.079Z,11.43
2022-12-01T07:43:07.315Z,10.13
2022-12-01T07:45:38.105Z,10.03
2022-12-01T07:48:08.596Z,10.40
2022-12-01T07:50:38.576Z,8.23
2022-12-01T07:53:11.113Z,9.77
2022-12-01T07:55:41.420Z,9.77
2022-12-01T07:58:11.287Z,9.27
2022-12-01T08:00:41.486Z,9.07
2022-12-01T08:03:12.484Z,9.73
2022-12-01T08:05:42.522Z,9.10
2022-12-01T08:08:15.262Z,9.90
2022-12-01T08:10:45.208Z,8.80
2022-12-01T08:13:17.473Z,10.70
2022-12-01T08:15:47.957Z,9.57
2022-12-01T08:18:17.898Z,10.30
2022-12-01T08:20:51.549Z,10.10
2022-12-01T08:23:24.058Z,10.03
2022-12-01T08:25:54.895Z,10.00
2022-12-01T08:28:24.832Z,8.90
2022-12-01T08:30:55.015Z,8.53
2022-12-01T08:33:25.274Z,9.10
2022-12-01T08:35:55.366Z,10.30
2022-12-01T08:38:27.848Z,10.83
2022-12-01T08:40:58.164Z,9.33
2022-12-01T08:43:55.786Z,8.30
2022-12-01T08:46:18.521Z,8.73
2022-12-01T08:48:48.509Z,11.50
2022-12-01T08:51:21.457Z,10.40
2022-12-01T08:53:54.480Z,9.60
2022-12-01T08:56:27.757Z,10.30
2022-12-01T08:58:58.132Z,10.63
2022-12-01T09:01:29.323Z,10.13
2022-12-01T09:04:09.439Z,10.30
2022-12-01T09:06:43.000Z,11.60
2022-12-01T09:09:17.799Z,10.30
2022-12-01T09:11:48.581Z,10.73
2022-12-01T09:14:19.732Z,12.60
2022-12-01T09:16:52.192Z,11.43
2022-12-01T09:19:24.982Z,9.17
2022-12-01T09:21:55.685Z,10.40
2022-12-01T09:24:28.368Z,10.63
2022-12-01T09:27:00.112Z,14.07
2022-12-01T09:29:30.088Z,13.77
2022-12-01T09:32:01.645Z,12.37
2022-12-01T09:34:32.010Z,12.37
2022-12-01T09:37:02.399Z,13.50
2022-12-01T09:39:35.120Z,12.80
2022-12-01T09:42:09.524Z,12.63
2022-12-01T09:44:44.612Z,10.63
2022-12-01T09:47:20.870Z,11.70
2022-12-01T09:49:59.181Z,12.80
2022-12-01T09:52:32.009Z,10.63
2022-12-01T09:55:04.956Z,11.57
2022-12-01T09:57:37.101Z,9.10
2022-12-01T10:00:15.495Z,13.60
2022-12-01T10:02:51.655Z,14.03
2022-12-01T10:05:25.275Z,12.27
2022-12-01T10:08:00.997Z,13.73
2022-12-01T10:10:37.257Z,12.43
2022-12-01T10:13:18.634Z,11.40
2022-12-01T10:15:54.527Z,12.57
2022-12-01T10:18:36.620Z,11.70
2022-12-01T10:21:14.354Z,13.27
2022-12-01T10:23:55.494Z,12.23
2022-12-01T10:26:34.581Z,10.60
2022-12-01T10:29:23.680Z,12.93
2022-12-01T10:31:58.225Z,12.77
2022-12-01T10:34:31.178Z,11.90
2022-12-01T10:37:01.592Z,12.53
2022-12-01T10:39:34.096Z,9.20
2022-12-01T10:42:14.999Z,12.20
2022-12-01T10:44:45.883Z,11.00
2022-12-01T10:47:22.879Z,11.60
2022-12-01T10:49:53.265Z,11.20
2022-12-01T10:52:39.644Z,11.40
2022-12-01T10:55:28.260Z,10.57
2022-12-01T10:58:07.683Z,11.00
2022-12-01T11:03:35.032Z,10.60
2022-12-01T11:06:08.200Z,8.20
2022-12-01T11:08:42.810Z,9.97
2022-12-01T11:11:31.870Z,10.80
2022-12-01T11:14:07.633Z,11.77
2022-12-01T11:16:41.693Z,10.60
2022-12-01T11:19:26.889Z,8.50
2022-12-01T11:21:59.948Z,11.23
2022-12-01T11:24:43.107Z,10.57
2022-12-01T11:27:19.691Z,10.90
2022-12-01T11:29:54.246Z,9.33
2022-12-01T11:32:27.735Z,7.60
2022-12-01T11:35:02.057Z,8.97
2022-12-01T11:37:39.622Z,11.40
2022-12-01T11:40:18.457Z,9.60
2022-12-01T11:42:51.969Z,10.77
2022-12-01T11:45:33.202Z,10.27
2022-12-01T11:48:07.183Z,11.70
2022-12-01T11:50:38.882Z,10.23
2022-12-01T11:53:30.307Z,11.33
2022-12-01T11:56:23.538Z,15.80
2022-12-01T11:58:58.966Z,10.37
2022-12-01T12:01:41.233Z,9.63
2022-12-01T12:04:27.784Z,9.13
2022-12-01T12:07:05.120Z,8.40
2022-12-01T12:09:49.203Z,8.07
2022-12-01T12:12:31.409Z,8.20
2022-12-01T12:15:13.322Z,8.90
2022-12-01T12:18:03.711Z,8.77
2022-12-01T12:20:47.173Z,8.70
2022-12-01T12:23:39.382Z,9.40
2022-12-01T12:26:17.245Z,8.77
2022-12-01T12:28:59.645Z,7.77
2022-12-01T12:31:38.012Z,8.30
2022-12-01T12:34:41.162Z,6.63
2022-12-01T12:37:20.584Z,12.57
2022-12-01T12:40:04.023Z,12.53
2022-12-01T12:42:46.693Z,10.60
2022-12-01T12:45:26.248Z,15.20
2022-12-01T12:48:22.679Z,14.37
2022-12-01T12:51:03.607Z,13.47
2022-12-01T12:53:43.731Z,12.73
2022-12-01T12:56:18.127Z,15.37
2022-12-01T12:58:57.656Z,12.67
2022-12-01T13:01:31.953Z,10.77
2022-12-01T13:04:06.554Z,13.57
2022-12-01T13:06:43.566Z,14.93
2022-12-01T13:09:19.204Z,14.97
2022-12-01T13:11:55.909Z,12.83
2022-12-01T13:14:32.404Z,14.03
2022-12-01T13:17:19.356Z,13.60
2022-12-01T13:19:52.465Z,14.00
2022-12-01T13:22:35.718Z,10.90
2022-12-01T13:25:07.748Z,10.43
2022-12-01T13:27:43.140Z,12.30
2022-12-01T13:30:24.700Z,10.63
2022-12-01T13:33:02.794Z,12.83
2022-12-01T13:35:36.016Z,11.90
2022-12-01T13:38:34.025Z,12.60
2022-12-01T13:41:15.502Z,13.77
2022-12-01T13:43:57.401Z,12.77
2022-12-01T13:46:30.182Z,16.70
2022-12-01T13:49:01.761Z,13.30
2022-12-01T13:52:07.303Z,14.50
2022-12-01T13:54:41.660Z,13.13
2022-12-01T13:57:16.503Z,17.03
2022-12-01T14:00:16.320Z,12.57
2022-12-01T14:02:47.335Z,14.00
2022-12-01T14:05:47.763Z,14.27
2022-12-01T14:08:23.922Z,15.77
2022-12-01T14:11:01.327Z,14.80
2022-12-01T14:13:33.527Z,13.30
2022-12-01T14:16:07.487Z,13.77
2022-12-01T14:18:40.628Z,14.60
2022-12-01T14:21:12.665Z,13.57
2022-12-01T14:24:02.576Z,11.57
2022-12-01T14:26:45.720Z,14.47
2022-12-01T14:29:32.549Z,13.07
2022-12-01T14:32:24.606Z,11.93
2022-12-01T14:35:14.325Z,13.63
2022-12-01T14:37:50.844Z,12.50
2022-12-01T14:40:31.439Z,12.70
2022-12-01T14:43:18.978Z,13.10
2022-12-01T14:46:11.418Z,16.30
2022-12-01T14:48:44.900Z,12.77
2022-12-01T14:51:29.958Z,11.57
2022-12-01T14:54:02.432Z,12.20
2022-12-01T14:56:35.621Z,13.67
2022-12-01T14:59:21.731Z,13.40
2022-12-01T15:01:54.233Z,12.73
2022-12-01T15:04:24.542Z,15.87
2022-12-01T15:06:59.054Z,14.77
2022-12-01T15:09:34.192Z,15.27
2022-12-01T15:12:07.690Z,16.30
2022-12-01T15:14:42.392Z,14.30
2022-12-01T15:17:32.711Z,12.70
2022-12-01T15:20:03.516Z,17.07
2022-12-01T15:22:37.497Z,15.17
2022-12-01T15:25:16.012Z,17.93
2022-12-01T15:27:47.295Z,13.50
2022-12-01T15:30:20.598Z,13.97
2022-12-01T15:32:50.682Z,13.67
2022-12-01T15:35:23.863Z,11.53
2022-12-01T15:37:54.519Z,11.07
2022-12-01T15:41:06.092Z,16.03
2022-12-01T15:43:21.102Z,15.03
2022-12-01T15:45:58.834Z,14.00
2022-12-01T15:48:32.627Z,14.70
2022-12-01T15:51:09.959Z,11.97
2022-12-01T15:53:43.163Z,10.70
2022-12-01T15:56:14.376Z,14.43
2022-12-01T15:58:47.357Z,13.13
2022-12-01T16:01:22.404Z,13.00
2022-12-01T16:03:58.949Z,13.30
2022-12-01T16:06:33.235Z,16.47
2022-12-01T16:09:06.109Z,15.63
2022-12-01T16:11:36.405Z,17.27
2022-12-01T16:14:10.280Z,14.90
2022-12-01T16:16:46.563Z,16.83
2022-12-01T16:19:32.957Z,13.60
2022-12-01T16:22:08.176Z,15.17
2022-12-01T16:24:41.250Z,12.57
2022-12-01T16:27:21.777Z,11.40
2022-12-01T16:29:54.859Z,13.93
2022-12-01T16:32:30.938Z,15.10
2022-12-01T16:35:01.945Z,16.67
2022-12-01T16:37:32.939Z,15.70
2022-12-01T16:40:02.820Z,16.00
2022-12-01T16:42:33.236Z,11.43
2022-12-01T16:45:03.188Z,12.77
2022-12-01T16:47:36.252Z,15.87
2022-12-01T16:50:06.363Z,16.10
2022-12-01T16:52:44.366Z,18.50
2022-12-01T16:55:28.370Z,18.93
2022-12-01T16:57:58.659Z,17.30
2022-12-01T17:00:29.746Z,12.23
2022-12-01T17:03:02.974Z,14.47
2022-12-01T17:05:33.039Z,14.90
2022-12-01T17:08:03.793Z,13.80
2022-12-01T17:10:34.044Z,18.23
2022-12-01T17:13:04.216Z,10.37
2022-12-01T17:15:34.432Z,14.50
2022-12-01T17:18:08.470Z,14.63
2022-12-01T17:20:38.502Z,16.07
2022-12-01T17:23:09.136Z,16.90
2022-12-01T17:25:43.064Z,12.13
2022-12-01T17:28:13.425Z,18.10
2022-12-01T17:30:43.389Z,16.50
2022-12-01T17:33:16.279Z,16.27
2022-12-01T17:35:46.318Z,16.30
2022-12-01T17:38:16.573Z,17.50
2022-12-01T17:40:47.076Z,12.03
2022-12-01T17:43:17.771Z,14.47
2022-12-01T17:45:47.730Z,20.43
2022-12-01T17:48:21.330Z,15.23
2022-12-01T17:50:51.321Z,13.00
2022-12-01T17:53:22.640Z,15.50
2022-12-01T17:55:53.346Z,15.60
2022-12-01T17:58:23.678Z,15.40
2022-12-01T18:00:54.411Z,14.37
2022-12-01T18:03:27.651Z,16.07
2022-12-01T18:05:58.941Z,16.03
2022-12-01T18:08:31.707Z,13.43
2022-12-01T18:11:07.690Z,14.30
2022-12-01T18:13:39.200Z,12.83
2022-12-01T18:16:11.163Z,16.87
2022-12-01T18:18:45.282Z,13.90
2022-12-01T18:21:22.638Z,17.27
2022-12-01T18:23:53.638Z,17.17
2022-12-01T18:26:24.452Z,18.70
2022-12-01T18:28:57.692Z,16.90
2022-12-01T18:31:27.816Z,14.80
2022-12-01T18:34:02.794Z,14.17
2022-12-01T18:36:33.485Z,14.10
2022-12-01T18:39:07.458Z,13.40
2022-12-01T18:41:38.439Z,13.83
2022-12-01T18:44:09.149Z,12.93
2022-12-01T18:46:39.240Z,14.70
2022-12-01T18:49:12.451Z,17.30
2022-12-01T18:51:42.452Z,15.50
2022-12-01T18:54:16.745Z,15.77
2022-12-01T18:56:46.755Z,13.70
2022-12-01T18:59:18.681Z,16.83
2022-12-01T19:01:49.176Z,11.23
2022-12-01T19:04:21.965Z,15.07
2022-12-01T19:06:51.847Z,15.43
2022-12-01T19:09:21.807Z,17.60
2022-12-01T19:11:58.855Z,15.33
2022-12-01T19:14:30.883Z,16.03
2022-12-01T19:17:00.872Z,15.33
2022-12-01T19:19:37.403Z,16.00
2022-12-01T19:22:07.859Z,13.87
2022-12-01T19:24:38.256Z,14.43
2022-12-01T19:27:08.291Z,12.90
2022-12-01T19:29:38.552Z,16.53
2022-12-01T19:32:09.055Z,15.33
2022-12-01T19:34:41.603Z,11.23
2022-12-01T19:37:11.666Z,15.50
2022-12-01T19:39:42.384Z,17.50
2022-12-01T19:42:13.609Z,13.50
2022-12-01T19:44:44.937Z,13.17
2022-12-01T19:47:19.187Z,13.17
2022-12-01T19:49:55.217Z,11.23
2022-12-01T19:52:25.166Z,9.77
2022-12-01T19:54:55.753Z,11.83
2022-12-01T19:57:25.835Z,13.53
2022-12-01T19:59:56.130Z,11.67
2022-12-01T20:02:29.047Z,10.60
2022-12-01T20:05:02.432Z,11.67
2022-12-01T20:07:33.069Z,11.27
2022-12-01T20:10:03.234Z,10.10
2022-12-01T20:12:33.214Z,9.37
2022-12-01T20:15:10.494Z,12.20
2022-12-01T20:17:40.701Z,10.80
2022-12-01T20:20:16.432Z,11.33
2022-12-01T20:22:46.412Z,10.13
2022-12-01T20:25:17.049Z,9.57
2022-12-01T20:27:48.167Z,11.87
2022-12-01T20:30:19.069Z,10.13
2022-12-01T20:32:49.094Z,9.40
2022-12-01T20:35:22.433Z,9.20
2022-12-01T20:37:52.393Z,10.00
2022-12-01T20:40:22.962Z,10.33
2022-12-01T20:42:53.001Z,9.87
2022-12-01T20:45:23.354Z,10.03
2022-12-01T20:47:53.287Z,8.30
2022-12-01T20:50:26.149Z,8.27
2022-12-01T20:52:56.100Z,8.20
2022-12-01T20:55:26.444Z,10.17
2022-12-01T20:57:56.371Z,8.70
2022-12-01T21:00:27.453Z,8.10
2022-12-01T21:02:57.470Z,8.10
2022-12-01T21:05:32.637Z,8.57
2022-12-01T21:08:03.271Z,8.70
2022-12-01T21:10:33.431Z,8.43
2022-12-01T21:13:30.451Z,7.97
2022-12-01T21:16:06.996Z,8.00
2022-12-01T21:18:44.947Z,9.40
2022-12-01T21:21:26.555Z,8.53
2022-12-01T21:24:17.109Z,7.90
2022-12-01T21:26:50.669Z,7.97
2022-12-01T21:29:25.182Z,9.27
2022-12-01T21:31:57.150Z,7.60
2022-12-01T21:34:30.061Z,7.03
2022-12-01T21:37:05.434Z,6.60
2022-12-01T21:39:37.761Z,7.80
2022-12-01T21:42:19.435Z,6.30
2022-12-01T21:44:50.129Z,7.33
2022-12-01T21:47:23.068Z,5.60
2022-12-01T21:49:56.003Z,7.13
2022-12-01T21:52:32.854Z,6.93
2022-12-01T21:55:05.574Z,7.10
2022-12-01T21:57:43.195Z,6.00
2022-12-01T22:00:35.463Z,6.40
2022-12-01T22:03:31.333Z,6.40
2022-12-01T22:09:00.130Z,7.27
2022-12-01T22:11:32.035Z,7.03
2022-12-01T22:14:07.582Z,7.53
2022-12-01T22:16:41.458Z,7.00
2022-12-01T22:19:32.738Z,6.53
2022-12-01T22:22:04.946Z,7.00
2022-12-01T22:24:45.413Z,9.17
2022-12-01T22:27:28.621Z,8.20
2022-12-01T22:30:02.067Z,8.87
2022-12-01T22:32:41.380Z,7.67
2022-12-01T22:35:31.668Z,7.97
2022-12-01T22:38:23.129Z,7.83
2022-12-01T22:41:16.516Z,8.10
2022-12-01T22:43:51.114Z,7.07
2022-12-01T22:46:30.071Z,7.63
2022-12-01T22:49:01.732Z,6.67
2022-12-01T22:51:44.872Z,7.83
2022-12-01T22:54:35.605Z,8.37
2022-12-01T22:57:24.904Z,7.10
2022-12-01T22:59:56.194Z,7.63
2022-12-01T23:02:31.719Z,7.27
2022-12-01T23:05:03.450Z,7.20
2022-12-01T23:07:36.149Z,8.73
2022-12-01T23:10:17.371Z,8.63
2022-12-01T23:12:51.546Z,8.43
2022-12-01T23:15:35.669Z,7.90
2022-12-01T23:18:14.472Z,7.47
2022-12-01T23:20:46.534Z,7.93
2022-12-01T23:23:19.349Z,7.37
2022-12-01T23:25:51.951Z,7.40
2022-12-01T23:28:24.769Z,7.83
2022-12-01T23:30:57.930Z,9.40
2022-12-01T23:33:30.764Z,8.50
2022-12-01T23:36:03.566Z,7.80
2022-12-01T23:38:40.062Z,9.23
2022-12-01T23:41:15.877Z,7.70
2022-12-01T23:43:49.397Z,10.13
2022-12-01T23:46:22.671Z,8.90
2022-12-01T23:48:56.161Z,8.30
2022-12-01T23:51:28.962Z,8.80
2022-12-01T23:54:00.227Z,8.90
2022-12-01T23:56:35.321Z,8.57
2022-12-01T23:59:12.263Z,8.23
